sensor_id;sensor_type;location;lat;lon;timestamp;pressure;altitude;pressure_sealevel;temperature;humidity
60817;BME280;51921;51.518;-3.188;2022-07-18T00:02:20;101827.04;;;21.64;38.94
60817;BME280;51921;51.518;-3.188;2022-07-18T00:04:46;101832.86;;;20.55;39.46
60817;BME280;51921;51.518;-3.188;2022-07-18T00:07:11;101827.65;;;22.38;37.64
60817;BME280;51921;51.518;-3.188;2022-07-18T00:09:36;101828.73;;;22.84;36.50
60817;BME280;51921;51.518;-3.188;2022-07-18T00:12:02;101828.52;;;22.33;36.43
60817;BME280;51921;51.518;-3.188;2022-07-18T00:14:27;101828.75;;;22.38;36.19
60817;BME280;51921;51.518;-3.188;2022-07-18T00:16:52;101826.84;;;21.82;36.54
60817;BME280;51921;51.518;-3.188;2022-07-18T00:19:18;101826.56;;;21.90;36.10
60817;BME280;51921;51.518;-3.188;2022-07-18T00:21:44;101819.87;;;21.60;36.16
60817;BME280;51921;51.518;-3.188;2022-07-18T00:24:09;101816.26;;;17.21;43.49
60817;BME280;51921;51.518;-3.188;2022-07-18T00:26:34;101812.15;;;17.82;44.24
60817;BME280;51921;51.518;-3.188;2022-07-18T00:28:59;101815.37;;;17.33;44.96
60817;BME280;51921;51.518;-3.188;2022-07-18T00:31:25;101812.65;;;17.48;44.42
60817;BME280;51921;51.518;-3.188;2022-07-18T00:33:50;101811.56;;;17.36;44.61
60817;BME280;51921;51.518;-3.188;2022-07-18T00:36:15;101812.62;;;16.89;45.95
60817;BME280;51921;51.518;-3.188;2022-07-18T00:38:40;101812.16;;;18.41;42.92
60817;BME280;51921;51.518;-3.188;2022-07-18T00:41:06;101808.84;;;17.09;44.68
60817;BME280;51921;51.518;-3.188;2022-07-18T00:43:31;101813.16;;;16.62;46.07
60817;BME280;51921;51.518;-3.188;2022-07-18T00:45:56;101814.27;;;16.31;46.76
60817;BME280;51921;51.518;-3.188;2022-07-18T00:48:22;101809.01;;;19.31;42.99
60817;BME280;51921;51.518;-3.188;2022-07-18T00:50:47;101810.09;;;21.07;39.46
60817;BME280;51921;51.518;-3.188;2022-07-18T00:53:13;101809.04;;;20.23;39.85
60817;BME280;51921;51.518;-3.188;2022-07-18T00:55:39;101806.34;;;20.16;38.76
60817;BME280;51921;51.518;-3.188;2022-07-18T00:58:03;101800.27;;;17.31;43.81
60817;BME280;51921;51.518;-3.188;2022-07-18T01:00:29;101801.44;;;17.28;45.13
60817;BME280;51921;51.518;-3.188;2022-07-18T01:02:54;101801.42;;;16.86;45.70
60817;BME280;51921;51.518;-3.188;2022-07-18T01:05:19;101801.57;;;16.01;48.42
60817;BME280;51921;51.518;-3.188;2022-07-18T01:07:45;101796.19;;;16.44;48.76
60817;BME280;51921;51.518;-3.188;2022-07-18T01:10:10;101788.52;;;18.77;44.47
60817;BME280;51921;51.518;-3.188;2022-07-18T01:12:36;101786.47;;;18.21;44.25
60817;BME280;51921;51.518;-3.188;2022-07-18T01:15:01;101784.86;;;16.36;48.58
60817;BME280;51921;51.518;-3.188;2022-07-18T01:17:26;101778.49;;;16.77;48.61
60817;BME280;51921;51.518;-3.188;2022-07-18T01:19:52;101775.27;;;18.94;44.44
60817;BME280;51921;51.518;-3.188;2022-07-18T01:22:19;101771.47;;;18.80;44.07
60817;BME280;51921;51.518;-3.188;2022-07-18T01:24:43;101768.17;;;16.69;48.59
60817;BME280;51921;51.518;-3.188;2022-07-18T01:27:09;101770.66;;;16.31;50.94
60817;BME280;51921;51.518;-3.188;2022-07-18T01:29:34;101767.28;;;15.97;52.00
60817;BME280;51921;51.518;-3.188;2022-07-18T01:32:04;101765.72;;;16.21;51.68
60817;BME280;51921;51.518;-3.188;2022-07-18T01:34:24;101761.79;;;18.20;48.46
60817;BME280;51921;51.518;-3.188;2022-07-18T01:36:50;101756.24;;;18.79;46.82
60817;BME280;51921;51.518;-3.188;2022-07-18T01:39:20;101756.58;;;18.83;46.49
60817;BME280;51921;51.518;-3.188;2022-07-18T01:41:40;101757.13;;;17.01;50.32
60817;BME280;51921;51.518;-3.188;2022-07-18T01:44:06;101758.65;;;16.07;53.15
60817;BME280;51921;51.518;-3.188;2022-07-18T01:46:31;101757.34;;;16.01;52.61
60817;BME280;51921;51.518;-3.188;2022-07-18T01:48:57;101750.81;;;17.60;48.94
60817;BME280;51921;51.518;-3.188;2022-07-18T01:51:22;101749.39;;;19.02;46.16
60817;BME280;51921;51.518;-3.188;2022-07-18T01:53:54;101751.87;;;20.04;43.64
60817;BME280;51921;51.518;-3.188;2022-07-18T01:56:13;101749.56;;;19.60;43.54
60817;BME280;51921;51.518;-3.188;2022-07-18T01:58:38;101745.27;;;19.78;43.46
60817;BME280;51921;51.518;-3.188;2022-07-18T02:01:03;101742.71;;;17.69;44.69
60817;BME280;51921;51.518;-3.188;2022-07-18T02:03:29;101747.79;;;15.83;48.91
60817;BME280;51921;51.518;-3.188;2022-07-18T02:05:54;101743.94;;;17.43;46.72
60817;BME280;51921;51.518;-3.188;2022-07-18T02:08:20;101738.55;;;19.03;43.59
60817;BME280;51921;51.518;-3.188;2022-07-18T02:10:45;101738.30;;;19.13;42.92
60817;BME280;51921;51.518;-3.188;2022-07-18T02:13:10;101735.99;;;17.29;45.62
60817;BME280;51921;51.518;-3.188;2022-07-18T02:15:36;101741.55;;;16.11;49.53
60817;BME280;51921;51.518;-3.188;2022-07-18T02:18:01;101736.90;;;16.44;50.89
60817;BME280;51921;51.518;-3.188;2022-07-18T02:20:27;101730.72;;;15.77;52.55
60817;BME280;51921;51.518;-3.188;2022-07-18T02:22:52;101728.10;;;16.93;49.80
60817;BME280;51921;51.518;-3.188;2022-07-18T02:25:17;101726.67;;;16.75;48.86
60817;BME280;51921;51.518;-3.188;2022-07-18T02:27:43;101724.71;;;18.34;46.40
60817;BME280;51921;51.518;-3.188;2022-07-18T02:30:10;101719.58;;;19.34;44.82
60817;BME280;51921;51.518;-3.188;2022-07-18T02:32:34;101719.51;;;18.62;45.69
60817;BME280;51921;51.518;-3.188;2022-07-18T02:34:59;101721.35;;;16.48;49.71
60817;BME280;51921;51.518;-3.188;2022-07-18T02:37:24;101725.13;;;15.08;55.51
60817;BME280;51921;51.518;-3.188;2022-07-18T02:39:50;101726.01;;;14.74;58.67
60817;BME280;51921;51.518;-3.188;2022-07-18T02:42:15;101721.52;;;16.69;53.51
60817;BME280;51921;51.518;-3.188;2022-07-18T02:44:41;101720.18;;;19.11;46.99
60817;BME280;51921;51.518;-3.188;2022-07-18T02:47:06;101722.05;;;21.01;43.17
60817;BME280;51921;51.518;-3.188;2022-07-18T02:49:32;101718.75;;;19.08;44.76
60817;BME280;51921;51.518;-3.188;2022-07-18T02:51:59;101722.34;;;15.72;50.42
60817;BME280;51921;51.518;-3.188;2022-07-18T02:54:23;101723.07;;;17.37;48.76
60817;BME280;51921;51.518;-3.188;2022-07-18T02:56:48;101714.00;;;18.83;45.97
60817;BME280;51921;51.518;-3.188;2022-07-18T02:59:13;101712.90;;;17.45;47.64
60817;BME280;51921;51.518;-3.188;2022-07-18T03:01:38;101712.37;;;17.32;48.68
60817;BME280;51921;51.518;-3.188;2022-07-18T03:04:04;101710.48;;;19.52;44.73
60817;BME280;51921;51.518;-3.188;2022-07-18T03:06:29;101702.58;;;19.21;44.33
60817;BME280;51921;51.518;-3.188;2022-07-18T03:08:55;101703.54;;;20.14;43.04
60817;BME280;51921;51.518;-3.188;2022-07-18T03:11:20;101706.30;;;20.04;43.64
60817;BME280;51921;51.518;-3.188;2022-07-18T03:13:45;101703.15;;;20.46;42.22
60817;BME280;51921;51.518;-3.188;2022-07-18T03:16:11;101697.67;;;19.99;43.05
60817;BME280;51921;51.518;-3.188;2022-07-18T03:18:36;101699.33;;;20.04;43.32
60817;BME280;51921;51.518;-3.188;2022-07-18T03:21:02;101696.57;;;19.56;43.45
60817;BME280;51921;51.518;-3.188;2022-07-18T03:23:27;101692.41;;;19.12;43.92
60817;BME280;51921;51.518;-3.188;2022-07-18T03:25:52;101689.99;;;18.97;45.12
60817;BME280;51921;51.518;-3.188;2022-07-18T03:28:18;101687.41;;;17.37;47.40
60817;BME280;51921;51.518;-3.188;2022-07-18T03:30:43;101684.56;;;17.23;48.20
60817;BME280;51921;51.518;-3.188;2022-07-18T03:33:09;101682.49;;;19.08;45.09
60817;BME280;51921;51.518;-3.188;2022-07-18T03:35:34;101684.21;;;19.70;44.08
60817;BME280;51921;51.518;-3.188;2022-07-18T03:37:59;101684.58;;;20.54;42.83
60817;BME280;51921;51.518;-3.188;2022-07-18T03:40:25;101685.93;;;19.76;43.90
60817;BME280;51921;51.518;-3.188;2022-07-18T03:42:50;101685.23;;;19.41;44.18
60817;BME280;51921;51.518;-3.188;2022-07-18T03:45:16;101681.10;;;20.15;43.66
60817;BME280;51921;51.518;-3.188;2022-07-18T03:47:41;101679.03;;;20.04;43.14
60817;BME280;51921;51.518;-3.188;2022-07-18T03:50:07;101678.05;;;20.22;43.53
60817;BME280;51921;51.518;-3.188;2022-07-18T03:52:31;101678.70;;;18.97;45.20
60817;BME280;51921;51.518;-3.188;2022-07-18T03:54:57;101681.31;;;19.20;44.65
60817;BME280;51921;51.518;-3.188;2022-07-18T03:57:22;101674.82;;;19.18;45.57
60817;BME280;51921;51.518;-3.188;2022-07-18T03:59:48;101675.31;;;18.40;46.92
60817;BME280;51921;51.518;-3.188;2022-07-18T04:02:13;101671.51;;;18.73;46.91
60817;BME280;51921;51.518;-3.188;2022-07-18T04:04:38;101670.02;;;16.77;52.15
60817;BME280;51921;51.518;-3.188;2022-07-18T04:07:04;101663.29;;;17.37;50.91
60817;BME280;51921;51.518;-3.188;2022-07-18T04:09:29;101656.95;;;17.98;49.16
60817;BME280;51921;51.518;-3.188;2022-07-18T04:11:55;101656.44;;;15.74;54.00
60817;BME280;51921;51.518;-3.188;2022-07-18T04:14:20;101656.11;;;16.60;53.24
60817;BME280;51921;51.518;-3.188;2022-07-18T04:16:45;101654.53;;;15.18;58.01
60817;BME280;51921;51.518;-3.188;2022-07-18T04:19:11;101652.32;;;13.93;62.11
60817;BME280;51921;51.518;-3.188;2022-07-18T04:21:36;101656.76;;;15.75;58.26
60817;BME280;51921;51.518;-3.188;2022-07-18T04:24:02;101653.74;;;15.71;57.67
60817;BME280;51921;51.518;-3.188;2022-07-18T04:26:27;101651.77;;;16.84;54.25
60817;BME280;51921;51.518;-3.188;2022-07-18T04:28:52;101654.57;;;14.58;59.99
60817;BME280;51921;51.518;-3.188;2022-07-18T04:31:18;101652.16;;;15.71;58.42
60817;BME280;51921;51.518;-3.188;2022-07-18T04:33:43;101649.67;;;17.19;53.72
60817;BME280;51921;51.518;-3.188;2022-07-18T04:36:09;101644.08;;;18.44;50.49
60817;BME280;51921;51.518;-3.188;2022-07-18T04:38:34;101644.35;;;19.15;48.78
60817;BME280;51921;51.518;-3.188;2022-07-18T04:41:00;101642.51;;;18.22;50.22
60817;BME280;51921;51.518;-3.188;2022-07-18T04:43:28;101643.75;;;19.24;48.33
60817;BME280;51921;51.518;-3.188;2022-07-18T04:45:50;101641.73;;;18.91;48.30
60817;BME280;51921;51.518;-3.188;2022-07-18T04:48:16;101635.61;;;17.25;51.73
60817;BME280;51921;51.518;-3.188;2022-07-18T04:50:42;101635.65;;;14.88;58.88
60817;BME280;51921;51.518;-3.188;2022-07-18T04:53:06;101639.60;;;14.66;60.83
60817;BME280;51921;51.518;-3.188;2022-07-18T04:55:32;101639.18;;;13.98;61.99
60817;BME280;51921;51.518;-3.188;2022-07-18T04:57:57;101636.82;;;13.48;65.51
60817;BME280;51921;51.518;-3.188;2022-07-18T05:00:25;101639.04;;;14.21;64.62
60817;BME280;51921;51.518;-3.188;2022-07-18T05:02:51;101637.80;;;16.75;56.44
60817;BME280;51921;51.518;-3.188;2022-07-18T05:05:15;101637.79;;;16.86;55.22
60817;BME280;51921;51.518;-3.188;2022-07-18T05:07:40;101637.20;;;18.99;50.53
60817;BME280;51921;51.518;-3.188;2022-07-18T05:10:05;101631.53;;;18.45;50.09
60817;BME280;51921;51.518;-3.188;2022-07-18T05:12:29;101638.35;;;18.96;48.97
60817;BME280;51921;51.518;-3.188;2022-07-18T05:15:01;101638.39;;;19.74;47.47
60817;BME280;51921;51.518;-3.188;2022-07-18T05:17:20;101642.36;;;19.57;47.51
60817;BME280;51921;51.518;-3.188;2022-07-18T05:19:45;101642.23;;;20.25;45.66
60817;BME280;51921;51.518;-3.188;2022-07-18T05:22:11;101645.26;;;20.01;45.41
60817;BME280;51921;51.518;-3.188;2022-07-18T05:24:36;101642.71;;;20.53;44.95
60817;BME280;51921;51.518;-3.188;2022-07-18T05:27:01;101644.46;;;20.27;44.94
60817;BME280;51921;51.518;-3.188;2022-07-18T05:29:27;101646.47;;;19.66;45.43
60817;BME280;51921;51.518;-3.188;2022-07-18T05:31:53;101645.65;;;18.56;46.68
60817;BME280;51921;51.518;-3.188;2022-07-18T05:34:18;101647.33;;;20.22;45.25
60817;BME280;51921;51.518;-3.188;2022-07-18T05:36:43;101647.50;;;19.62;45.42
60817;BME280;51921;51.518;-3.188;2022-07-18T05:39:08;101644.60;;;19.33;46.20
60817;BME280;51921;51.518;-3.188;2022-07-18T05:41:34;101644.19;;;19.94;45.49
60817;BME280;51921;51.518;-3.188;2022-07-18T05:44:04;101640.85;;;20.02;45.14
60817;BME280;51921;51.518;-3.188;2022-07-18T05:46:25;101636.05;;;20.34;44.78
60817;BME280;51921;51.518;-3.188;2022-07-18T05:48:50;101634.36;;;20.79;44.49
60817;BME280;51921;51.518;-3.188;2022-07-18T05:51:15;101638.24;;;20.43;44.39
60817;BME280;51921;51.518;-3.188;2022-07-18T05:53:41;101640.29;;;19.75;45.07
60817;BME280;51921;51.518;-3.188;2022-07-18T05:56:07;101636.27;;;20.13;44.25
60817;BME280;51921;51.518;-3.188;2022-07-18T05:58:31;101639.40;;;19.98;43.52
60817;BME280;51921;51.518;-3.188;2022-07-18T06:00:57;101630.55;;;21.27;42.18
60817;BME280;51921;51.518;-3.188;2022-07-18T06:03:22;101632.95;;;21.49;41.61
60817;BME280;51921;51.518;-3.188;2022-07-18T06:05:48;101635.66;;;20.63;42.61
60817;BME280;51921;51.518;-3.188;2022-07-18T06:08:13;101632.21;;;20.75;41.47
60817;BME280;51921;51.518;-3.188;2022-07-18T06:10:43;101634.87;;;21.01;42.53
60817;BME280;51921;51.518;-3.188;2022-07-18T06:13:03;101635.84;;;20.86;41.98
60817;BME280;51921;51.518;-3.188;2022-07-18T06:15:35;101639.64;;;21.69;40.97
60817;BME280;51921;51.518;-3.188;2022-07-18T06:17:54;101638.12;;;21.09;40.41
60817;BME280;51921;51.518;-3.188;2022-07-18T06:20:20;101639.65;;;21.27;40.79
60817;BME280;51921;51.518;-3.188;2022-07-18T06:22:45;101637.49;;;22.31;39.33
60817;BME280;51921;51.518;-3.188;2022-07-18T06:25:11;101634.48;;;22.80;38.59
60817;BME280;51921;51.518;-3.188;2022-07-18T06:27:36;101630.77;;;21.75;39.34
60817;BME280;51921;51.518;-3.188;2022-07-18T06:30:01;101639.31;;;22.28;39.66
60817;BME280;51921;51.518;-3.188;2022-07-18T06:32:27;101644.15;;;19.97;42.97
60817;BME280;51921;51.518;-3.188;2022-07-18T06:34:52;101641.71;;;17.27;46.44
60817;BME280;51921;51.518;-3.188;2022-07-18T06:37:17;101640.60;;;17.96;47.64
60817;BME280;51921;51.518;-3.188;2022-07-18T06:39:43;101638.29;;;17.22;48.99
60817;BME280;51921;51.518;-3.188;2022-07-18T06:42:08;101636.20;;;16.07;51.51
60817;BME280;51921;51.518;-3.188;2022-07-18T06:44:33;101637.82;;;17.98;47.90
60817;BME280;51921;51.518;-3.188;2022-07-18T06:46:59;101642.89;;;20.52;43.36
60817;BME280;51921;51.518;-3.188;2022-07-18T06:49:25;101639.42;;;17.50;47.79
60817;BME280;51921;51.518;-3.188;2022-07-18T06:51:49;101634.70;;;17.70;48.11
60817;BME280;51921;51.518;-3.188;2022-07-18T06:54:15;101633.52;;;16.55;50.68
60817;BME280;51921;51.518;-3.188;2022-07-18T06:56:40;101632.76;;;16.31;52.10
60817;BME280;51921;51.518;-3.188;2022-07-18T06:59:06;101629.34;;;16.31;50.22
60817;BME280;51921;51.518;-3.188;2022-07-18T07:01:31;101631.06;;;16.67;49.20
60817;BME280;51921;51.518;-3.188;2022-07-18T07:03:56;101629.64;;;16.68;49.43
60817;BME280;51921;51.518;-3.188;2022-07-18T07:06:22;101631.13;;;17.75;48.08
60817;BME280;51921;51.518;-3.188;2022-07-18T07:08:47;101627.46;;;17.32;49.18
60817;BME280;51921;51.518;-3.188;2022-07-18T07:11:13;101631.54;;;18.24;47.22
60817;BME280;51921;51.518;-3.188;2022-07-18T07:13:38;101631.89;;;18.93;46.04
60817;BME280;51921;51.518;-3.188;2022-07-18T07:16:04;101636.16;;;17.99;44.69
60817;BME280;51921;51.518;-3.188;2022-07-18T07:18:28;101634.63;;;18.95;43.22
60817;BME280;51921;51.518;-3.188;2022-07-18T07:20:54;101623.53;;;16.84;47.42
60817;BME280;51921;51.518;-3.188;2022-07-18T07:23:19;101623.47;;;17.18;47.60
60817;BME280;51921;51.518;-3.188;2022-07-18T07:25:44;101631.86;;;19.51;42.27
60817;BME280;51921;51.518;-3.188;2022-07-18T07:28:09;101631.51;;;18.15;43.00
60817;BME280;51921;51.518;-3.188;2022-07-18T07:30:35;101610.83;;;18.39;43.76
60817;BME280;51921;51.518;-3.188;2022-07-18T07:33:01;101622.42;;;18.96;42.25
60817;BME280;51921;51.518;-3.188;2022-07-18T07:35:26;101618.96;;;18.88;42.60
60817;BME280;51921;51.518;-3.188;2022-07-18T07:37:53;101615.96;;;18.63;41.79
60817;BME280;51921;51.518;-3.188;2022-07-18T07:40:17;101616.38;;;18.08;43.37
60817;BME280;51921;51.518;-3.188;2022-07-18T07:42:42;101620.94;;;17.94;44.22
60817;BME280;51921;51.518;-3.188;2022-07-18T07:45:08;101618.25;;;18.97;41.72
60817;BME280;51921;51.518;-3.188;2022-07-18T07:47:33;101609.12;;;18.37;43.54
60817;BME280;51921;51.518;-3.188;2022-07-18T07:50:00;101608.82;;;18.44;43.55
60817;BME280;51921;51.518;-3.188;2022-07-18T07:52:23;101611.24;;;19.09;42.57
60817;BME280;51921;51.518;-3.188;2022-07-18T07:54:48;101607.38;;;20.98;39.43
60817;BME280;51921;51.518;-3.188;2022-07-18T07:57:13;101608.53;;;23.52;34.29
60817;BME280;51921;51.518;-3.188;2022-07-18T07:59:39;101608.60;;;20.18;38.90
60817;BME280;51921;51.518;-3.188;2022-07-18T08:02:05;101608.59;;;19.90;40.76
60817;BME280;51921;51.518;-3.188;2022-07-18T08:04:30;101608.29;;;20.12;39.32
60817;BME280;51921;51.518;-3.188;2022-07-18T08:06:56;101606.12;;;20.46;38.92
60817;BME280;51921;51.518;-3.188;2022-07-18T08:09:26;101603.84;;;20.97;39.23
60817;BME280;51921;51.518;-3.188;2022-07-18T08:11:47;101602.80;;;25.05;33.80
60817;BME280;51921;51.518;-3.188;2022-07-18T08:14:12;101596.88;;;27.28;28.41
60817;BME280;51921;51.518;-3.188;2022-07-18T08:16:37;101598.61;;;22.83;33.28
60817;BME280;51921;51.518;-3.188;2022-07-18T08:19:03;101605.01;;;21.70;35.97
60817;BME280;51921;51.518;-3.188;2022-07-18T08:21:28;101608.18;;;22.52;36.20
60817;BME280;51921;51.518;-3.188;2022-07-18T08:23:53;101606.39;;;24.64;32.69
60817;BME280;51921;51.518;-3.188;2022-07-18T08:26:24;101602.27;;;26.95;30.05
60817;BME280;51921;51.518;-3.188;2022-07-18T08:28:44;101602.77;;;30.10;24.90
60817;BME280;51921;51.518;-3.188;2022-07-18T08:31:10;101606.67;;;23.09;32.36
60817;BME280;51921;51.518;-3.188;2022-07-18T08:33:35;101607.52;;;20.77;38.38
60817;BME280;51921;51.518;-3.188;2022-07-18T08:36:00;101604.86;;;22.26;35.83
60817;BME280;51921;51.518;-3.188;2022-07-18T08:38:25;101603.37;;;25.77;31.28
60817;BME280;51921;51.518;-3.188;2022-07-18T08:40:52;101609.11;;;23.61;32.22
60817;BME280;51921;51.518;-3.188;2022-07-18T08:43:17;101602.43;;;26.65;30.37
60817;BME280;51921;51.518;-3.188;2022-07-18T08:45:43;101600.45;;;29.32;26.02
60817;BME280;51921;51.518;-3.188;2022-07-18T08:48:08;101599.53;;;30.97;24.07
60817;BME280;51921;51.518;-3.188;2022-07-18T08:50:33;101602.58;;;24.34;32.00
60817;BME280;51921;51.518;-3.188;2022-07-18T08:52:59;101599.20;;;24.55;31.50
60817;BME280;51921;51.518;-3.188;2022-07-18T08:55:23;101596.96;;;23.60;33.36
60817;BME280;51921;51.518;-3.188;2022-07-18T08:57:49;101587.78;;;25.42;31.68
60817;BME280;51921;51.518;-3.188;2022-07-18T09:00:14;101585.01;;;27.39;29.90
60817;BME280;51921;51.518;-3.188;2022-07-18T09:02:39;101584.02;;;28.33;26.69
60817;BME280;51921;51.518;-3.188;2022-07-18T09:05:06;101584.07;;;23.67;32.34
60817;BME280;51921;51.518;-3.188;2022-07-18T09:07:31;101578.90;;;28.10;28.06
60817;BME280;51921;51.518;-3.188;2022-07-18T09:09:57;101581.78;;;25.20;32.54
60817;BME280;51921;51.518;-3.188;2022-07-18T09:12:21;101579.28;;;28.14;27.69
60817;BME280;51921;51.518;-3.188;2022-07-18T09:14:46;101577.92;;;23.38;33.50
60817;BME280;51921;51.518;-3.188;2022-07-18T09:17:13;101568.94;;;22.70;36.20
60817;BME280;51921;51.518;-3.188;2022-07-18T09:19:39;101573.68;;;21.39;38.23
60817;BME280;51921;51.518;-3.188;2022-07-18T09:22:13;101571.94;;;23.13;36.10
60817;BME280;51921;51.518;-3.188;2022-07-18T09:24:28;101569.04;;;24.13;36.17
60817;BME280;51921;51.518;-3.188;2022-07-18T09:26:53;101562.06;;;23.87;35.34
60817;BME280;51921;51.518;-3.188;2022-07-18T09:29:19;101563.88;;;23.83;36.84
60817;BME280;51921;51.518;-3.188;2022-07-18T09:31:52;101562.71;;;24.17;35.41
60817;BME280;51921;51.518;-3.188;2022-07-18T09:34:18;101563.61;;;26.23;34.24
60817;BME280;51921;51.518;-3.188;2022-07-18T09:39:16;101559.67;;;25.56;32.24
60817;BME280;51921;51.518;-3.188;2022-07-18T09:41:29;101561.12;;;27.08;30.31
60817;BME280;51921;51.518;-3.188;2022-07-18T09:43:53;101561.89;;;29.22;28.35
60817;BME280;51921;51.518;-3.188;2022-07-18T09:46:18;101557.48;;;29.72;27.49
60817;BME280;51921;51.518;-3.188;2022-07-18T09:48:43;101560.54;;;27.77;29.83
60817;BME280;51921;51.518;-3.188;2022-07-18T09:51:09;101561.47;;;28.65;28.42
60817;BME280;51921;51.518;-3.188;2022-07-18T09:53:36;101558.15;;;29.92;26.91
60817;BME280;51921;51.518;-3.188;2022-07-18T09:56:01;101556.87;;;29.62;27.63
60817;BME280;51921;51.518;-3.188;2022-07-18T09:58:29;101552.76;;;30.49;26.48
60817;BME280;51921;51.518;-3.188;2022-07-18T10:00:56;101550.57;;;31.62;24.37
60817;BME280;51921;51.518;-3.188;2022-07-18T10:03:16;101556.01;;;27.39;28.56
60817;BME280;51921;51.518;-3.188;2022-07-18T10:05:43;101553.61;;;25.31;32.96
60817;BME280;51921;51.518;-3.188;2022-07-18T10:08:09;101552.24;;;27.42;30.08
60817;BME280;51921;51.518;-3.188;2022-07-18T10:10:32;101551.11;;;24.59;34.76
60817;BME280;51921;51.518;-3.188;2022-07-18T10:13:00;101542.31;;;26.19;33.42
60817;BME280;51921;51.518;-3.188;2022-07-18T10:15:24;101545.61;;;27.81;31.06
60817;BME280;51921;51.518;-3.188;2022-07-18T10:17:48;101544.69;;;26.31;31.42
60817;BME280;51921;51.518;-3.188;2022-07-18T10:20:13;101546.18;;;26.42;34.50
60817;BME280;51921;51.518;-3.188;2022-07-18T10:22:39;101549.58;;;27.96;30.70
60817;BME280;51921;51.518;-3.188;2022-07-18T10:25:04;101547.59;;;28.13;30.30
60817;BME280;51921;51.518;-3.188;2022-07-18T10:30:08;101549.10;;;27.83;30.44
60817;BME280;51921;51.518;-3.188;2022-07-18T10:32:31;101542.72;;;27.71;30.52
60817;BME280;51921;51.518;-3.188;2022-07-18T10:34:45;101541.02;;;29.27;29.29
60817;BME280;51921;51.518;-3.188;2022-07-18T10:37:12;101540.58;;;29.78;28.38
60817;BME280;51921;51.518;-3.188;2022-07-18T10:39:38;101540.50;;;30.60;26.34
60817;BME280;51921;51.518;-3.188;2022-07-18T10:42:14;101543.61;;;29.85;28.39
60817;BME280;51921;51.518;-3.188;2022-07-18T10:44:33;101541.99;;;24.77;33.80
60817;BME280;51921;51.518;-3.188;2022-07-18T10:47:04;101543.27;;;26.32;33.61
60817;BME280;51921;51.518;-3.188;2022-07-18T10:49:18;101539.29;;;28.13;30.04
60817;BME280;51921;51.518;-3.188;2022-07-18T10:51:44;101536.42;;;24.77;35.08
60817;BME280;51921;51.518;-3.188;2022-07-18T10:54:10;101535.87;;;27.85;32.15
60817;BME280;51921;51.518;-3.188;2022-07-18T10:59:01;101535.41;;;25.85;33.08
60817;BME280;51921;51.518;-3.188;2022-07-18T11:01:26;101531.13;;;27.59;32.28
60817;BME280;51921;51.518;-3.188;2022-07-18T11:06:22;101532.47;;;25.65;34.63
60817;BME280;51921;51.518;-3.188;2022-07-18T11:08:42;101531.01;;;24.47;36.80
60817;BME280;51921;51.518;-3.188;2022-07-18T11:11:09;101523.41;;;25.30;36.24
60817;BME280;51921;51.518;-3.188;2022-07-18T11:13:34;101523.18;;;27.30;33.55
60817;BME280;51921;51.518;-3.188;2022-07-18T11:16:00;101524.23;;;27.02;32.00
60817;BME280;51921;51.518;-3.188;2022-07-18T11:18:23;101527.89;;;24.45;37.07
60817;BME280;51921;51.518;-3.188;2022-07-18T11:20:55;101525.57;;;26.58;35.34
60817;BME280;51921;51.518;-3.188;2022-07-18T11:23:21;101526.62;;;28.27;31.38
60817;BME280;51921;51.518;-3.188;2022-07-18T11:25:39;101522.36;;;28.92;29.88
60817;BME280;51921;51.518;-3.188;2022-07-18T11:28:07;101517.53;;;26.68;32.21
60817;BME280;51921;51.518;-3.188;2022-07-18T11:30:36;101518.78;;;28.90;30.06
60817;BME280;51921;51.518;-3.188;2022-07-18T11:32:54;101519.34;;;28.87;28.36
60817;BME280;51921;51.518;-3.188;2022-07-18T11:35:24;101522.37;;;28.59;28.50
60817;BME280;51921;51.518;-3.188;2022-07-18T11:37:47;101518.87;;;30.15;28.25
60817;BME280;51921;51.518;-3.188;2022-07-18T11:40:10;101509.90;;;31.01;27.18
60817;BME280;51921;51.518;-3.188;2022-07-18T11:42:36;101510.87;;;30.00;27.82
60817;BME280;51921;51.518;-3.188;2022-07-18T11:45:00;101512.57;;;30.35;27.04
60817;BME280;51921;51.518;-3.188;2022-07-18T11:47:26;101514.40;;;29.63;27.77
60817;BME280;51921;51.518;-3.188;2022-07-18T11:49:55;101512.06;;;31.39;25.64
60817;BME280;51921;51.518;-3.188;2022-07-18T11:52:18;101512.10;;;29.82;27.38
60817;BME280;51921;51.518;-3.188;2022-07-18T11:54:42;101512.05;;;27.52;31.56
60817;BME280;51921;51.518;-3.188;2022-07-18T11:57:07;101515.35;;;28.63;30.31
60817;BME280;51921;51.518;-3.188;2022-07-18T11:59:42;101508.63;;;29.72;31.06
60817;BME280;51921;51.518;-3.188;2022-07-18T12:01:58;101506.38;;;30.24;29.83
60817;BME280;51921;51.518;-3.188;2022-07-18T12:04:24;101502.53;;;30.36;28.65
60817;BME280;51921;51.518;-3.188;2022-07-18T12:11:39;101497.71;;;29.83;30.41
60817;BME280;51921;51.518;-3.188;2022-07-18T12:14:12;101499.43;;;30.91;29.46
60817;BME280;51921;51.518;-3.188;2022-07-18T12:16:32;101500.38;;;29.18;30.73
60817;BME280;51921;51.518;-3.188;2022-07-18T12:18:59;101493.49;;;29.79;31.17
60817;BME280;51921;51.518;-3.188;2022-07-18T12:21:21;101491.63;;;30.29;30.34
60817;BME280;51921;51.518;-3.188;2022-07-18T12:23:47;101492.03;;;30.75;30.63
60817;BME280;51921;51.518;-3.188;2022-07-18T12:26:26;101487.11;;;30.98;30.03
60817;BME280;51921;51.518;-3.188;2022-07-18T12:28:38;101488.53;;;31.53;29.08
60817;BME280;51921;51.518;-3.188;2022-07-18T12:31:03;101485.97;;;31.52;27.33
60817;BME280;51921;51.518;-3.188;2022-07-18T12:33:29;101483.66;;;31.16;28.91
60817;BME280;51921;51.518;-3.188;2022-07-18T12:35:56;101482.10;;;31.33;28.46
60817;BME280;51921;51.518;-3.188;2022-07-18T12:38:20;101485.84;;;31.84;26.54
60817;BME280;51921;51.518;-3.188;2022-07-18T12:40:46;101473.40;;;31.31;27.55
60817;BME280;51921;51.518;-3.188;2022-07-18T12:43:11;101471.73;;;28.96;30.66
60817;BME280;51921;51.518;-3.188;2022-07-18T12:45:35;101470.92;;;30.88;28.45